Terminal Aerodrome Forecast
Issued by NWS

Home | Current Version | Previous Version | Text Only | Print | Product List | Glossary On
Versions: 1 2 3 4 5 6 7 8 9 10 11 12 13 14 15 16 17 18 19 20 21 22 23 24 25 26 27 28 29 30 31 32
000
FTUS45 KGJT 210529
TAFVEL
TAF
KVEL 210529Z 2106/2206 29006KT P6SM SKC
     FM211400 VRB03KT P6SM FEW150
     FM212000 19006KT P6SM SCT150
     FM220000 33005KT P6SM BKN120
     FM220500 31005KT P6SM SCT120=

USA.gov is the U.S. government's official web portal to all federal, state and local government web resources and services.